Time;durP1;ratioP1;P1;durP2;ratioP2;P2;SDS_P1;SDS_P2;PMS_P1;PMS_P2;Temp;Humidity;BMP_temperature;BMP_pressure;BME280_temperature;BME280_humidity;BME280_pressure;Samples;Min_cycle;Max_cycle;Signal;HPM_P1;HPM_P2
2021/12/16 00:06:15;;;;;;;33.53;30.67;;;;;;;22.58;28.88;95918.69;5020204;28;103560;-49
2021/12/16 00:08:39;;;;;;;30.83;28.23;;;;;;;22.58;28.56;95924.03;5001648;28;103194;-49
2021/12/16 00:33:10;;;;;;;29.27;26.80;;;;;;;22.53;28.78;95924.88;4983805;28;103088;-49
2021/12/16 00:35:34;;;;;;;31.60;28.90;;;;;;;22.54;28.88;95929.13;5000762;28;102777;-49
2021/12/16 00:37:59;;;;;;;32.17;29.43;;;;;;;22.44;28.52;95919.34;5001474;28;102870;-49
2021/12/16 00:40:24;;;;;;;34.30;31.50;;;;;;;22.51;28.30;95929.69;4991571;28;103070;-49
2021/12/16 00:42:55;;;;;;;33.60;30.70;;;;;;;22.54;28.62;95933.66;5003867;28;103596;-48
2021/12/16 00:55:52;;;;;;;30.87;28.27;;;;;;;22.53;28.52;95927.53;4995763;28;103410;-49
2021/12/16 00:58:24;;;;;;;30.53;27.90;;;;;;;22.52;28.04;95928.63;5016665;28;102691;-49
2021/12/16 01:01:10;;;;;;;31.87;29.10;;;;;;;22.49;28.19;95924.63;5001142;28;102711;-49
2021/12/16 01:47:43;;;;;;;28.00;25.70;;;;;;;22.49;28.62;95900.66;5020041;28;103198;-48
2021/12/16 01:57:23;;;;;;;25.20;23.13;;;;;;;22.47;28.15;95889.47;5003125;28;102813;-48
2021/12/16 02:00:05;;;;;;;26.47;24.07;;;;;;;22.46;28.04;95885.25;5014870;28;103201;-49
2021/12/16 02:02:45;;;;;;;25.43;23.33;;;;;;;22.48;28.02;95887.63;5009297;28;102834;-48
2021/12/16 02:05:31;;;;;;;24.90;22.77;;;;;;;22.45;28.18;95894.31;5000050;28;102978;-49
2021/12/16 02:10:35;;;;;;;24.90;22.77;;;;;;;22.43;28.50;95882.34;5019319;28;103319;-48
2021/12/16 02:29:50;;;;;;;22.00;20.20;;;;;;;22.48;28.04;95896.41;5019298;28;102809;-48
2021/12/16 02:32:38;;;;;;;22.07;20.27;;;;;;;22.48;28.42;95888.41;5009495;28;103293;-49
2021/12/16 02:37:31;;;;;;;20.60;18.90;;;;;;;22.47;27.87;95888.69;5019555;28;102790;-48
2021/12/16 02:39:56;;;;;;;19.50;17.83;;;;;;;22.48;28.04;95901.72;5017803;28;103457;-48
2021/12/16 02:42:35;;;;;;;20.13;18.43;;;;;;;22.47;28.23;95889.47;5013339;28;103367;-48
2021/12/16 02:50:31;;;;;;;19.03;17.50;;;;;;;22.47;27.80;95897.47;4981461;28;103466;-48
2021/12/16 02:52:56;;;;;;;19.17;17.57;;;;;;;22.47;28.20;95896.69;5007849;28;102828;-49
2021/12/16 02:55:22;;;;;;;19.70;18.20;;;;;;;22.45;28.47;95893.50;4993639;28;102794;-48
2021/12/16 02:57:58;;;;;;;20.10;18.27;;;;;;;22.46;28.16;95893.22;4999127;28;102588;-48
2021/12/16 03:00:24;;;;;;;17.70;16.30;;;;;;;22.45;28.21;95894.31;4998363;28;102808;-48
2021/12/16 03:02:51;;;;;;;18.40;16.90;;;;;;;22.47;28.25;95894.03;4999835;28;103360;-49
2021/12/16 03:05:19;;;;;;;17.77;16.27;;;;;;;22.46;28.18;95887.91;4998972;28;103022;-49
2021/12/16 03:07:45;;;;;;;19.77;18.00;;;;;;;22.47;28.21;95888.69;4993315;28;103338;-48
2021/12/16 03:15:17;;;;;;;18.80;17.20;;;;;;;22.45;28.03;95886.31;4999323;28;102805;-49
2021/12/16 03:17:54;;;;;;;18.03;16.53;;;;;;;22.41;28.28;95887.16;4993010;28;104495;-49
2021/12/16 03:20:57;;;;;;;17.37;15.80;;;;;;;22.46;28.06;95892.44;4999432;28;103183;-48
2021/12/16 03:38:36;;;;;;;16.20;14.80;;;;;;;22.67;27.68;95895.69;4995207;28;103132;-48
2021/12/16 03:41:03;;;;;;;15.53;14.13;;;;;;;22.67;27.09;95895.69;5008294;28;103744;-48
2021/12/16 03:43:31;;;;;;;14.43;13.30;;;;;;;22.68;27.69;95890.09;5022086;28;102754;-48
2021/12/16 03:49:02;;;;;;;14.10;12.70;;;;;;;22.70;27.52;95898.59;5015254;28;102623;-48
2021/12/16 03:51:30;;;;;;;14.80;13.50;;;;;;;22.73;27.53;95899.91;4960153;28;104637;-48
2021/12/16 03:54:01;;;;;;;13.93;12.67;;;;;;;22.73;27.25;95892.72;5021051;28;102629;-48
2021/12/16 03:56:28;;;;;;;13.77;12.60;;;;;;;22.74;27.20;95893.50;5005627;28;103433;-48
2021/12/16 03:58:54;;;;;;;13.13;12.03;;;;;;;22.74;26.91;95896.16;5004005;28;102953;-48
2021/12/16 04:01:23;;;;;;;12.23;11.23;;;;;;;22.76;27.10;95900.13;4995718;28;102995;-48
2021/12/16 04:03:50;;;;;;;14.07;12.90;;;;;;;22.77;27.57;95898.25;5019820;28;103038;-48
2021/12/16 04:06:17;;;;;;;12.07;11.00;;;;;;;22.76;27.48;95888.69;5013054;28;103093;-47
2021/12/16 04:08:43;;;;;;;12.73;11.73;;;;;;;22.80;27.61;95898.47;5009531;28;102907;-47
2021/12/16 04:11:18;;;;;;;13.27;12.07;;;;;;;22.82;27.51;95900.91;5001490;28;102784;-47
2021/12/16 04:13:54;;;;;;;12.57;11.50;;;;;;;22.87;27.17;95900.84;5012630;28;104006;-47
2021/12/16 04:16:33;;;;;;;11.10;10.20;;;;;;;22.86;27.86;95899.28;5014813;28;102786;-49
2021/12/16 04:19:05;;;;;;;12.43;11.17;;;;;;;22.86;27.65;95899.28;5007695;28;103807;-49
2021/12/16 04:21:31;;;;;;;11.23;10.23;;;;;;;22.89;27.43;95897.91;5000388;28;102849;-50
2021/12/16 04:23:58;;;;;;;10.90;10.00;;;;;;;22.94;27.74;95890.66;5004994;28;102772;-49
2021/12/16 04:26:27;;;;;;;11.50;10.50;;;;;;;22.97;27.88;95892.72;5007878;28;102835;-49
2021/12/16 04:28:53;;;;;;;11.90;10.90;;;;;;;22.99;27.60;95893.25;5006801;28;103544;-49
2021/12/16 04:31:20;;;;;;;10.50;9.60;;;;;;;23.03;27.88;95888.97;5000942;28;102718;-49
2021/12/16 04:33:46;;;;;;;10.53;9.67;;;;;;;22.98;27.58;95880.22;4994251;28;103274;-49
2021/12/16 04:36:13;;;;;;;11.00;10.10;;;;;;;22.91;27.89;95882.44;5002753;28;103350;-49
2021/12/16 04:38:40;;;;;;;11.13;10.17;;;;;;;22.84;27.62;95873.97;4997100;28;103210;-49
2021/12/16 04:41:11;;;;;;;10.20;9.23;;;;;;;22.91;28.11;95875.22;4996266;28;103242;-49
2021/12/16 04:43:43;;;;;;;10.33;9.40;;;;;;;22.95;27.89;95875.44;5001018;28;103138;-49
2021/12/16 04:46:12;;;;;;;10.53;9.60;;;;;;;22.97;28.41;95873.28;4991649;28;103518;-49
2021/12/16 04:48:41;;;;;;;10.37;9.57;;;;;;;22.96;28.17;95880.50;4994885;28;103160;-47
2021/12/16 04:51:08;;;;;;;10.17;8.60;;;;;;;22.99;28.54;95869.25;4997196;28;103211;-47
2021/12/16 04:53:34;;;;;;;10.97;9.97;;;;;;;23.00;28.72;95870.06;5014128;28;103259;-47
2021/12/16 04:56:01;;;;;;;11.00;9.30;;;;;;;22.96;28.13;95875.16;4995633;28;103943;-47
2021/12/16 04:58:27;;;;;;;9.43;8.63;;;;;;;23.04;28.84;95869.22;5009489;28;104427;-48
2021/12/16 05:00:54;;;;;;;10.70;9.80;;;;;;;23.08;28.70;95859.56;4999993;28;103382;-48
2021/12/16 05:03:19;;;;;;;10.93;9.93;;;;;;;23.17;28.34;95872.25;5008891;28;103849;-48
2021/12/16 05:05:45;;;;;;;9.80;9.00;;;;;;;23.21;29.29;95867.97;4998721;28;102850;-48
2021/12/16 05:08:11;;;;;;;10.60;9.50;;;;;;;23.24;28.44;95867.38;4983093;28;102852;-47
2021/12/16 05:10:37;;;;;;;9.60;8.70;;;;;;;23.26;28.49;95865.22;5012428;28;103190;-47
2021/12/16 05:13:05;;;;;;;10.00;8.90;;;;;;;23.21;28.75;95863.41;5004759;28;103233;-48
2021/12/16 05:15:34;;;;;;;11.43;9.60;;;;;;;23.16;28.73;95860.00;5001149;28;102818;-48
2021/12/16 05:18:04;;;;;;;11.10;10.00;;;;;;;23.06;29.07;95867.06;4993054;28;103448;-48
2021/12/16 05:20:33;;;;;;;10.70;9.80;;;;;;;23.05;28.92;95870.81;4999593;28;102888;-48
2021/12/16 05:28:19;;;;;;;9.77;8.97;;;;;;;23.03;29.14;95878.28;4995786;28;102879;-47
2021/12/16 05:30:45;;;;;;;10.10;9.13;;;;;;;23.04;28.90;95879.09;4993374;28;104216;-47
2021/12/16 05:33:12;;;;;;;10.10;9.20;;;;;;;23.00;28.71;95865.50;4996915;28;103219;-47
2021/12/16 05:35:38;;;;;;;9.60;8.70;;;;;;;23.05;28.40;95886.00;4999410;28;102966;-47
2021/12/16 05:38:04;;;;;;;9.67;8.70;;;;;;;23.03;28.73;95869.50;4980145;28;104330;-47
2021/12/16 05:40:31;;;;;;;9.90;9.00;;;;;;;23.03;28.54;95877.50;4992446;28;102849;-47
2021/12/16 05:43:00;;;;;;;9.97;8.97;;;;;;;23.02;28.21;95879.38;4999165;28;102916;-47
2021/12/16 05:45:27;;;;;;;9.37;8.57;;;;;;;23.01;28.49;95875.13;5001080;28;102783;-47
2021/12/16 05:47:54;;;;;;;9.33;8.33;;;;;;;23.00;28.33;95875.38;4999365;28;103611;-47
2021/12/16 05:50:21;;;;;;;10.10;9.10;;;;;;;23.02;28.14;95882.03;5011061;28;103264;-47
2021/12/16 05:52:46;;;;;;;9.03;8.20;;;;;;;23.02;28.32;95887.38;5014611;28;102816;-47
2021/12/16 05:55:14;;;;;;;8.73;8.00;;;;;;;23.01;28.45;95874.31;5020213;28;102706;-47
2021/12/16 05:57:41;;;;;;;7.90;7.30;;;;;;;23.00;28.23;95876.16;5020303;28;102851;-47
2021/12/16 06:00:13;;;;;;;9.00;8.30;;;;;;;23.01;28.25;95876.97;5020556;28;102821;-46
2021/12/16 06:02:38;;;;;;;8.50;7.63;;;;;;;22.99;28.47;95874.59;5013574;28;102747;-47
2021/12/16 06:05:04;;;;;;;8.70;8.00;;;;;;;23.00;27.99;95878.03;5020888;28;102786;-47
2021/12/16 06:07:31;;;;;;;8.23;7.53;;;;;;;22.99;28.10;95871.94;5020299;28;102867;-47
2021/12/16 06:09:56;;;;;;;8.83;8.13;;;;;;;22.98;27.90;95880.22;5020356;28;103191;-47
2021/12/16 06:12:24;;;;;;;8.30;7.70;;;;;;;22.98;28.20;95878.34;5020160;28;103352;-47
2021/12/16 06:28:27;;;;;;;7.90;7.30;;;;;;;22.98;27.82;95877.53;5019918;28;102761;-47
2021/12/16 06:30:52;;;;;;;7.67;7.07;;;;;;;22.96;28.23;95890.34;5019439;28;102632;-47
2021/12/16 06:33:25;;;;;;;8.30;7.60;;;;;;;22.93;28.19;95862.41;5019723;28;104650;-47
2021/12/16 06:35:54;;;;;;;7.33;6.73;;;;;;;22.94;27.93;95874.66;5014436;28;103193;-47
2021/12/16 06:38:21;;;;;;;7.20;6.70;;;;;;;22.97;28.11;95878.63;5018126;28;103194;-47
2021/12/16 06:40:48;;;;;;;7.80;7.20;;;;;;;22.97;27.98;95867.97;5019704;28;103330;-47
2021/12/16 06:43:15;;;;;;;7.57;6.97;;;;;;;22.97;28.18;95863.41;5019596;28;102771;-47
2021/12/16 06:45:45;;;;;;;8.00;7.40;;;;;;;22.97;27.68;95870.63;5019672;28;103394;-47
2021/12/16 06:48:15;;;;;;;8.00;7.30;;;;;;;22.96;28.01;95869.03;5015320;28;103458;-47
2021/12/16 06:50:51;;;;;;;7.00;6.40;;;;;;;22.95;27.55;95876.25;5005548;28;103065;-47
2021/12/16 06:53:30;;;;;;;7.40;6.80;;;;;;;22.95;27.89;95884.25;4998988;28;102815;-47
2021/12/16 06:56:08;;;;;;;8.33;7.53;;;;;;;22.94;28.02;95873.88;5000274;28;103194;-47
2021/12/16 06:59:05;;;;;;;9.20;8.37;;;;;;;22.96;28.18;95875.16;4993919;28;102906;-48
2021/12/16 07:01:39;;;;;;;12.13;11.03;;;;;;;23.01;28.06;95887.63;4997508;28;105013;-47
2021/12/16 07:04:07;;;;;;;13.17;12.17;;;;;;;22.97;28.63;95883.94;4997943;28;103262;-50
2021/12/16 07:06:33;;;;;;;9.33;8.57;;;;;;;22.88;28.38;95883.78;4999793;28;103421;-50
2021/12/16 07:09:04;;;;;;;12.30;11.30;;;;;;;22.80;28.64;95879.84;4993182;28;103303;-50
2021/12/16 07:11:36;;;;;;;12.77;11.67;;;;;;;22.77;28.56;95885.72;4998557;28;102736;-50
2021/12/16 07:14:04;;;;;;;11.80;10.80;;;;;;;22.75;29.02;95884.44;4998949;28;102762;-50
2021/12/16 07:16:30;;;;;;;11.60;10.60;;;;;;;22.73;28.80;95886.59;5000852;28;102878;-50
2021/12/16 07:18:58;;;;;;;9.70;9.00;;;;;;;22.72;28.86;95885.00;4997991;28;102686;-50
2021/12/16 07:21:24;;;;;;;10.17;9.37;;;;;;;22.70;28.68;95879.97;5002191;28;102873;-50
2021/12/16 07:23:51;;;;;;;10.93;10.03;;;;;;;22.68;28.71;95887.44;5002386;28;102690;-50
2021/12/16 07:26:16;;;;;;;10.50;9.70;;;;;;;22.69;28.57;95896.22;5002433;28;103306;-50
2021/12/16 07:28:42;;;;;;;9.53;8.80;;;;;;;22.70;28.64;95884.50;5003124;28;103179;-50
2021/12/16 07:31:08;;;;;;;10.20;9.40;;;;;;;22.72;28.88;95890.31;4978110;28;105579;-50
2021/12/16 07:33:34;;;;;;;8.97;8.17;;;;;;;22.70;28.57;95889.81;5002556;28;103198;-50
2021/12/16 07:36:00;;;;;;;9.70;8.90;;;;;;;22.70;28.81;95879.16;5002908;28;102978;-50
2021/12/16 07:38:26;;;;;;;8.60;7.90;;;;;;;22.71;28.80;95883.41;5000998;28;102976;-50
2021/12/16 07:40:53;;;;;;;9.53;8.73;;;;;;;22.70;28.60;95889.81;4999909;28;104546;-50
2021/12/16 07:45:51;;;;;;;8.90;8.20;;;;;;;22.70;28.23;95887.16;4999287;28;102625;-50
2021/12/16 07:48:18;;;;;;;8.67;8.00;;;;;;;22.66;28.54;95886.13;5002225;28;102657;-49
2021/12/16 07:50:46;;;;;;;8.70;8.00;;;;;;;22.66;28.42;95886.13;5015910;28;103305;-49
2021/12/16 07:53:12;;;;;;;9.33;8.33;;;;;;;22.66;28.61;95889.56;5016858;28;104890;-50
2021/12/16 07:55:41;;;;;;;9.30;8.60;;;;;;;22.65;28.29;95889.84;5022680;28;102772;-50
2021/12/16 07:58:07;;;;;;;8.97;8.20;;;;;;;22.66;28.53;95886.91;5021869;28;102917;-50
2021/12/16 08:00:34;;;;;;;8.80;8.10;;;;;;;22.66;28.28;95894.91;5021814;28;103169;-50
2021/12/16 08:03:05;;;;;;;8.80;8.10;;;;;;;22.67;28.29;95890.34;5016247;28;102782;-50
2021/12/16 08:05:37;;;;;;;8.10;7.50;;;;;;;22.65;28.95;95890.66;5021969;28;102900;-50
2021/12/16 08:08:04;;;;;;;8.67;7.87;;;;;;;22.65;28.35;95893.31;5021726;28;103285;-50
2021/12/16 08:10:30;;;;;;;8.80;8.10;;;;;;;22.66;28.67;95886.91;5022211;28;102909;-49
2021/12/16 08:12:56;;;;;;;9.10;8.40;;;;;;;22.63;28.56;95884.00;5021753;28;102826;-50
2021/12/16 08:15:22;;;;;;;8.90;8.10;;;;;;;22.66;28.24;95889.56;5016370;28;102866;-50
2021/12/16 08:17:48;;;;;;;8.73;8.03;;;;;;;22.66;28.26;95894.09;5022045;28;102728;-50
2021/12/16 08:20:18;;;;;;;7.90;7.30;;;;;;;22.65;28.14;95887.19;5021494;28;102904;-50
2021/12/16 08:22:48;;;;;;;8.67;7.97;;;;;;;22.66;28.29;95883.44;5020963;28;102738;-50
2021/12/16 08:25:16;;;;;;;8.00;7.40;;;;;;;22.65;28.62;95880.00;5015872;28;102823;-50
2021/12/16 08:27:42;;;;;;;8.00;7.40;;;;;;;22.66;28.43;95884.25;5020931;28;102926;-50
2021/12/16 08:30:11;;;;;;;7.97;7.30;;;;;;;22.65;28.20;95885.31;5021227;28;102516;-50
2021/12/16 08:32:37;;;;;;;7.43;6.93;;;;;;;22.65;28.49;95882.66;5021286;28;103489;-50
2021/12/16 08:35:04;;;;;;;7.87;7.27;;;;;;;22.65;28.33;95874.66;5022293;28;102791;-50
2021/12/16 08:37:29;;;;;;;7.20;6.70;;;;;;;22.65;28.42;95884.53;4996568;28;102939;-50
2021/12/16 08:39:55;;;;;;;7.77;7.17;;;;;;;22.62;28.26;95879.75;5021398;28;103535;-50
2021/12/16 08:42:21;;;;;;;7.57;6.97;;;;;;;22.62;28.47;95885.09;5021738;28;102798;-50
2021/12/16 08:44:46;;;;;;;8.10;7.40;;;;;;;22.66;28.39;95892.22;5021663;28;102801;-50
2021/12/16 08:47:15;;;;;;;7.30;6.70;;;;;;;22.64;28.27;95877.63;5016909;28;103461;-50
2021/12/16 08:49:40;;;;;;;6.73;6.23;;;;;;;22.67;28.48;95882.38;5016452;28;102766;-50
2021/12/16 08:52:13;;;;;;;7.53;6.83;;;;;;;22.64;28.49;95880.28;5000539;28;103137;-50
2021/12/16 08:54:39;;;;;;;6.70;6.20;;;;;;;22.68;28.36;95884.78;4982638;28;102714;-50
2021/12/16 08:57:05;;;;;;;6.87;6.37;;;;;;;22.66;28.72;95873.59;5001116;28;103274;-50
2021/12/16 08:59:32;;;;;;;7.70;7.10;;;;;;;22.68;28.28;95870.66;4994981;28;103381;-50
2021/12/16 09:01:58;;;;;;;7.30;6.70;;;;;;;22.65;28.35;95876.53;5001267;28;102816;-50
2021/12/16 09:04:26;;;;;;;7.13;6.53;;;;;;;22.64;28.73;95867.75;5001179;28;102774;-50
2021/12/16 09:06:53;;;;;;;7.03;6.53;;;;;;;22.64;28.46;95862.41;4999596;28;102688;-50
2021/12/16 09:09:19;;;;;;;6.90;6.40;;;;;;;22.64;28.27;95870.41;4995871;28;103093;-50
2021/12/16 09:12:02;;;;;;;7.13;6.53;;;;;;;22.62;28.51;95864.56;5001179;28;103271;-50
2021/12/16 09:14:28;;;;;;;7.17;6.60;;;;;;;22.65;28.63;95871.22;5000724;28;102807;-50
2021/12/16 09:16:54;;;;;;;8.50;7.70;;;;;;;22.64;28.61;95866.97;5000716;28;102726;-50
2021/12/16 09:19:20;;;;;;;8.20;7.50;;;;;;;22.63;28.49;95852.84;4983040;28;102814;-50
2021/12/16 09:21:45;;;;;;;9.90;9.10;;;;;;;22.62;28.47;95858.47;4995244;28;102909;-50
2021/12/16 09:24:14;;;;;;;10.50;9.70;;;;;;;22.61;28.35;95851.53;5001493;28;102771;-50
2021/12/16 09:26:45;;;;;;;10.97;10.07;;;;;;;22.63;28.28;95852.06;5000966;28;102789;-50
2021/12/16 09:29:11;;;;;;;10.67;9.87;;;;;;;22.65;28.54;95852.56;5000654;28;103423;-50
2021/12/16 09:31:38;;;;;;;9.03;8.33;;;;;;;22.65;28.11;95853.34;4995785;28;102829;-50
2021/12/16 09:34:08;;;;;;;9.07;8.37;;;;;;;22.66;28.29;95849.63;5001396;28;102920;-50
2021/12/16 09:36:36;;;;;;;8.80;8.10;;;;;;;22.65;28.35;95855.22;4999774;28;102795;-50
2021/12/16 09:39:06;;;;;;;7.70;7.10;;;;;;;22.63;28.12;95842.19;5000400;28;103854;-50
2021/12/16 09:41:32;;;;;;;8.03;7.23;;;;;;;22.64;28.16;95850.97;5000417;28;102962;-50
2021/12/16 09:43:59;;;;;;;8.07;7.37;;;;;;;22.64;27.98;95846.44;4995668;28;102693;-50
2021/12/16 09:46:27;;;;;;;7.40;6.80;;;;;;;22.61;27.94;95836.34;4999588;28;102675;-50
2021/12/16 09:48:56;;;;;;;7.00;6.40;;;;;;;22.61;27.53;95828.38;5000324;28;103545;-50
2021/12/16 09:51:27;;;;;;;7.73;6.70;;;;;;;22.61;27.96;95828.38;5018335;28;102922;-50
2021/12/16 09:54:03;;;;;;;6.93;6.33;;;;;;;22.62;27.78;95826.50;5016129;28;103141;-50
2021/12/16 09:56:30;;;;;;;6.60;6.10;;;;;;;22.58;27.80;95823.63;5020721;28;102881;-50
2021/12/16 09:58:59;;;;;;;7.27;6.67;;;;;;;22.62;27.93;95829.16;5020083;28;103312;-50
2021/12/16 10:01:25;;;;;;;7.20;6.70;;;;;;;22.62;27.85;95826.50;5020387;28;102714;-50
2021/12/16 10:03:54;;;;;;;7.23;6.73;;;;;;;22.62;27.91;95827.28;5019535;28;102780;-50
2021/12/16 10:06:20;;;;;;;7.10;6.50;;;;;;;22.64;27.83;95829.66;5017245;28;103146;-50
2021/12/16 10:08:46;;;;;;;6.77;6.27;;;;;;;22.64;27.80;95829.66;5020767;28;103491;-49
2021/12/16 10:11:12;;;;;;;7.00;6.40;;;;;;;22.62;27.90;95819.28;5020511;28;102905;-49
2021/12/16 10:14:01;;;;;;;6.77;6.27;;;;;;;22.61;27.99;95814.25;5020718;28;102827;-49
2021/12/16 10:19:16;;;;;;;7.40;6.80;;;;;;;22.61;27.69;95804.41;5020756;28;103167;-49
2021/12/16 10:21:45;;;;;;;7.10;6.50;;;;;;;22.64;27.79;95803.81;5019270;28;103818;-49
2021/12/16 10:24:26;;;;;;;7.63;7.03;;;;;;;22.62;27.96;95803.31;5019952;28;102846;-49
2021/12/16 10:27:18;;;;;;;7.00;6.40;;;;;;;22.65;27.96;95777.97;5015573;28;103319;-48
2021/12/16 10:29:52;;;;;;;7.00;6.50;;;;;;;22.66;27.88;95782.22;5019609;28;103363;-49
2021/12/16 10:32:36;;;;;;;7.10;6.50;;;;;;;22.65;27.79;95776.09;5020165;28;102796;-49
2021/12/16 10:35:08;;;;;;;7.50;6.90;;;;;;;22.67;27.72;95783.81;5020135;28;103467;-49
2021/12/16 10:37:38;;;;;;;6.80;6.30;;;;;;;22.67;28.14;95776.63;5014414;28;102755;-49
2021/12/16 10:40:28;;;;;;;7.40;6.80;;;;;;;22.68;28.00;95772.91;5019875;28;102744;-49
2021/12/16 10:42:54;;;;;;;7.73;7.13;;;;;;;22.69;28.04;95771.81;5019575;28;102653;-49
2021/12/16 10:45:37;;;;;;;7.13;6.63;;;;;;;22.67;28.04;95762.50;5020934;28;103407;-49
2021/12/16 10:48:31;;;;;;;7.80;7.30;;;;;;;22.69;28.04;95768.38;5015658;28;103229;-49
2021/12/16 10:51:06;;;;;;;7.10;6.60;;;;;;;22.70;27.77;95770.75;5007813;28;103553;-49
2021/12/16 10:53:45;;;;;;;7.80;7.20;;;;;;;22.69;27.89;95771.03;5002780;28;102845;-49
2021/12/16 10:56:11;;;;;;;7.80;7.20;;;;;;;22.68;27.83;95758.78;5004205;28;102798;-49
2021/12/16 10:58:57;;;;;;;6.93;6.43;;;;;;;22.66;27.67;95761.72;5002878;28;103780;-49
2021/12/16 11:01:44;;;;;;;7.40;6.80;;;;;;;22.70;27.80;95761.97;4999738;28;102659;-49
2021/12/16 11:04:20;;;;;;;7.03;6.53;;;;;;;22.68;27.82;95761.47;5002727;28;102948;-49
2021/12/16 11:06:58;;;;;;;7.17;6.67;;;;;;;22.66;27.90;95747.59;5002115;28;102696;-49
2021/12/16 11:09:28;;;;;;;6.20;5.80;;;;;;;22.69;27.84;95761.16;5003160;28;102686;-49
2021/12/16 11:12:13;;;;;;;6.70;6.20;;;;;;;22.68;28.01;95756.91;4997553;28;102688;-49
2021/12/16 11:14:42;;;;;;;6.70;6.20;;;;;;;22.69;27.98;95755.06;5003002;28;103523;-49
2021/12/16 11:17:10;;;;;;;6.80;6.30;;;;;;;22.66;27.83;95755.59;5003884;28;103788;-49
2021/12/16 11:19:47;;;;;;;6.03;5.63;;;;;;;22.69;27.89;95755.84;4984314;28;102726;-49
2021/12/16 11:22:16;;;;;;;6.53;6.03;;;;;;;22.68;27.84;95753.47;4997278;28;102872;-49
2021/12/16 11:24:42;;;;;;;6.73;6.23;;;;;;;22.66;28.07;95751.06;5002781;28;102867;-49
2021/12/16 11:27:35;;;;;;;8.37;7.67;;;;;;;22.67;28.06;95741.19;5002984;28;102520;-49
2021/12/16 11:30:21;;;;;;;8.60;7.97;;;;;;;22.68;27.90;95754.25;5002585;28;103125;-49
2021/12/16 11:32:49;;;;;;;9.53;8.80;;;;;;;22.68;27.98;95742.81;4997563;28;103429;-49
2021/12/16 11:35:47;;;;;;;10.47;9.67;;;;;;;22.70;27.94;95753.97;5001326;28;102702;-49
2021/12/16 11:38:19;;;;;;;11.70;10.80;;;;;;;22.68;27.92;95754.25;5003241;28;102775;-49
2021/12/16 11:40:54;;;;;;;11.73;10.83;;;;;;;22.68;28.01;95770.25;5002050;28;104306;-49
2021/12/16 11:43:32;;;;;;;10.57;9.87;;;;;;;22.70;28.13;95767.28;4997008;28;103206;-49
2021/12/16 11:45:58;;;;;;;11.87;10.97;;;;;;;22.69;27.90;95763.03;5002676;28;102830;-49
2021/12/16 11:48:32;;;;;;;11.97;11.07;;;;;;;22.69;28.06;95749.72;5003034;28;102672;-49
2021/12/16 11:51:14;;;;;;;11.10;10.30;;;;;;;22.68;27.62;95742.81;5016520;28;103118;-49
2021/12/16 11:53:48;;;;;;;12.00;10.90;;;;;;;22.67;27.87;95747.31;5018790;28;102758;-49
2021/12/16 11:56:16;;;;;;;12.07;11.17;;;;;;;22.70;28.01;95738.00;5016938;28;103268;-49
2021/12/16 11:58:43;;;;;;;13.63;12.53;;;;;;;22.70;28.38;95735.31;5022568;28;102694;-49
2021/12/16 12:01:19;;;;;;;12.60;11.70;;;;;;;22.69;28.07;95744.41;5020923;28;102921;-49
2021/12/16 12:03:46;;;;;;;13.37;12.37;;;;;;;22.68;28.07;95738.28;5021012;28;103261;-49
2021/12/16 12:06:27;;;;;;;13.50;12.33;;;;;;;22.64;28.17;95731.13;5016382;28;102787;-49
2021/12/16 12:08:55;;;;;;;14.90;13.73;;;;;;;22.68;28.21;95740.16;5023148;28;103270;-49
2021/12/16 12:11:28;;;;;;;13.60;12.50;;;;;;;22.66;28.17;95737.75;5021048;28;103018;-49
2021/12/16 12:14:17;;;;;;;14.67;13.47;;;;;;;22.69;28.30;95739.06;5021353;28;102981;-49
2021/12/16 12:16:46;;;;;;;13.50;12.43;;;;;;;22.69;28.16;95742.53;5013907;28;103111;-49
2021/12/16 12:19:22;;;;;;;14.00;12.90;;;;;;;22.69;28.08;95747.06;5021324;28;102768;-49
2021/12/16 12:21:56;;;;;;;14.47;13.37;;;;;;;22.70;27.98;95743.31;5021086;28;102960;-49
2021/12/16 12:24:34;;;;;;;14.90;13.77;;;;;;;22.68;27.73;95743.59;5020731;28;103454;-49
2021/12/16 12:27:12;;;;;;;15.00;13.83;;;;;;;22.66;28.25;95744.94;5017712;28;102906;-49
2021/12/16 12:29:45;;;;;;;15.63;14.33;;;;;;;22.63;28.00;95740.19;5021202;28;103710;-49
2021/12/16 12:32:15;;;;;;;16.50;15.20;;;;;;;22.68;27.95;95748.94;5020798;28;102782;-49
2021/12/16 12:34:44;;;;;;;16.70;15.37;;;;;;;22.68;28.07;95748.13;5019228;28;103441;-49
2021/12/16 12:37:14;;;;;;;17.97;16.50;;;;;;;22.65;28.19;95748.69;5019785;28;102858;-49
2021/12/16 12:39:44;;;;;;;17.13;15.73;;;;;;;22.66;27.92;95744.94;5014867;28;102893;-49
2021/12/16 12:42:12;;;;;;;18.30;16.80;;;;;;;22.66;27.89;95750.25;5019450;28;103556;-49
2021/12/16 12:44:38;;;;;;;19.60;18.03;;;;;;;22.67;27.87;95751.84;5020726;28;103223;-49
2021/12/16 12:47:06;;;;;;;19.33;17.83;;;;;;;22.66;27.94;95744.94;5020418;28;102629;-49
2021/12/16 12:49:33;;;;;;;19.20;17.70;;;;;;;22.65;28.14;95743.34;5011349;28;103365;-49
2021/12/16 12:52:31;;;;;;;20.03;18.50;;;;;;;22.64;27.82;95747.09;5000444;28;103443;-49
2021/12/16 12:55:01;;;;;;;20.93;19.13;;;;;;;22.65;27.93;95738.81;4966495;28;103745;-49
2021/12/16 12:57:30;;;;;;;21.20;19.50;;;;;;;22.65;27.83;95730.03;4999359;28;102801;-49
2021/12/16 12:59:57;;;;;;;21.87;20.07;;;;;;;22.66;28.09;95739.63;5000494;28;103333;-49
2021/12/16 13:02:28;;;;;;;21.00;19.33;;;;;;;22.66;28.40;95737.75;4994359;27;102859;-49
2021/12/16 13:05:08;;;;;;;20.73;19.13;;;;;;;22.67;28.18;95736.66;4998602;28;102765;-49
2021/12/16 13:07:43;;;;;;;19.37;17.77;;;;;;;22.67;27.79;95746.53;5000194;28;102876;-49
2021/12/16 13:10:17;;;;;;;19.63;18.13;;;;;;;22.66;27.84;95750.25;5000116;28;103265;-49
2021/12/16 13:12:50;;;;;;;20.47;18.77;;;;;;;22.67;27.83;95746.53;4995139;28;102861;-49
2021/12/16 13:26:45;;;;;;;18.40;16.90;;;;;;;22.66;28.15;95744.94;4997060;28;103197;-49
2021/12/16 13:29:42;;;;;;;18.03;16.57;;;;;;;22.65;28.11;95746.03;4998733;28;102791;-49
2021/12/16 13:32:16;;;;;;;18.63;17.13;;;;;;;22.65;27.75;95738.03;4999742;28;102723;-49
2021/12/16 13:35:04;;;;;;;17.87;16.57;;;;;;;22.66;27.89;95744.94;4993703;28;102768;-49
2021/12/16 13:37:36;;;;;;;17.80;16.40;;;;;;;22.65;27.97;95740.69;4998817;28;102777;-49
2021/12/16 13:40:14;;;;;;;17.90;16.50;;;;;;;22.65;28.14;95738.03;4999428;28;103381;-49
2021/12/16 13:43:00;;;;;;;17.60;16.20;;;;;;;22.64;27.64;95742.56;5000041;28;102791;-49
2021/12/16 13:45:44;;;;;;;17.97;16.37;;;;;;;22.65;27.92;95748.69;4994267;28;104372;-49
2021/12/16 14:06:22;;;;;;;16.23;14.93;;;;;;;22.61;27.84;95753.78;5013212;28;103268;-49
2021/12/16 14:08:51;;;;;;;15.13;14.03;;;;;;;22.63;27.87;95748.19;5018415;28;102855;-49
2021/12/16 14:12:19;;;;;;;14.47;13.37;;;;;;;22.67;28.02;95762.50;5017925;28;102784;-46
2021/12/16 14:24:03;;;;;;;14.13;13.00;;;;;;;22.88;27.34;95777.22;5015586;28;102673;-46
2021/12/16 14:37:21;;;;;;;12.37;11.43;;;;;;;22.92;27.24;95769.44;5016059;28;102911;-46
2021/12/16 14:48:26;;;;;;;12.60;11.70;;;;;;;22.93;27.17;95777.13;5003999;28;102981;-46
2021/12/16 14:51:03;;;;;;;12.30;11.30;;;;;;;22.94;27.45;95786.72;4998398;28;102870;-46
2021/12/16 14:53:36;;;;;;;12.00;11.03;;;;;;;22.96;27.21;95783.75;4998166;28;103329;-47
2021/12/16 14:56:10;;;;;;;11.80;10.90;;;;;;;22.95;27.32;95780.31;4997744;28;103160;-47
2021/12/16 14:58:38;;;;;;;11.07;10.27;;;;;;;22.95;27.37;95782.97;4999039;28;102630;-47
2021/12/16 15:01:09;;;;;;;11.57;10.67;;;;;;;22.95;27.27;95782.19;4998340;28;102738;-47
2021/12/16 15:03:39;;;;;;;11.87;10.87;;;;;;;22.95;27.07;95777.63;4991546;28;104852;-47
2021/12/16 15:06:09;;;;;;;11.20;10.40;;;;;;;22.95;27.50;95782.97;4997849;28;102936;-47
2021/12/16 15:08:54;;;;;;;10.67;9.87;;;;;;;22.91;27.13;95773.97;4997286;28;102635;-47
2021/12/16 15:11:39;;;;;;;11.33;10.43;;;;;;;22.95;27.10;95780.31;4999284;28;102990;-47
2021/12/16 15:14:23;;;;;;;11.60;10.70;;;;;;;22.95;27.39;95784.84;4990762;28;102992;-46
2021/12/16 15:17:06;;;;;;;10.87;9.97;;;;;;;22.96;27.41;95787.22;4996893;28;104554;-46